createdAt,value
2023-09-04T00:01:51.008Z,14.72
2023-09-04T00:04:18.651Z,14.60
2023-09-04T00:06:46.320Z,14.55
2023-09-04T00:09:16.249Z,14.62
2023-09-04T00:11:43.871Z,14.47
2023-09-04T00:14:11.883Z,14.43
2023-09-04T00:16:39.520Z,14.39
2023-09-04T00:19:07.166Z,14.38
2023-09-04T00:21:34.827Z,14.39
2023-09-04T00:24:02.884Z,14.52
2023-09-04T00:26:30.762Z,14.45
2023-09-04T00:28:58.110Z,14.50
2023-09-04T00:31:25.617Z,14.42
2023-09-04T00:33:52.883Z,14.40
2023-09-04T00:36:20.204Z,14.42
2023-09-04T00:38:47.445Z,14.33
2023-09-04T00:41:15.138Z,14.24
2023-09-04T00:43:42.292Z,14.21
2023-09-04T00:46:09.626Z,14.24
2023-09-04T00:48:37.848Z,14.24
2023-09-04T00:51:05.130Z,14.33
2023-09-04T00:53:34.841Z,14.48
2023-09-04T00:56:03.992Z,14.64
2023-09-04T00:58:31.206Z,14.75
2023-09-04T01:00:58.693Z,14.78
2023-09-04T01:03:26.620Z,14.69
2023-09-04T01:05:53.816Z,15.09
2023-09-04T01:08:21.306Z,15.03
2023-09-04T01:10:54.640Z,15.11
2023-09-04T01:13:48.280Z,15.26
2023-09-04T01:16:17.107Z,15.26
2023-09-04T01:18:45.033Z,15.26
2023-09-04T01:21:12.107Z,15.28
2023-09-04T01:23:39.089Z,15.27
2023-09-04T01:26:30.756Z,15.32
2023-09-04T01:29:17.877Z,15.27
2023-09-04T01:32:07.279Z,15.21
2023-09-04T01:34:39.287Z,15.27
2023-09-04T01:37:07.118Z,15.11
2023-09-04T01:39:34.728Z,15.18
2023-09-04T01:42:02.174Z,15.07
2023-09-04T01:44:29.466Z,14.99
2023-09-04T01:46:56.847Z,15.09
2023-09-04T01:49:23.966Z,15.04
2023-09-04T01:51:52.811Z,15.01
2023-09-04T01:54:20.084Z,14.93
2023-09-04T01:56:47.433Z,14.79
2023-09-04T01:59:15.136Z,14.71
2023-09-04T02:01:42.478Z,14.85
2023-09-04T02:04:09.886Z,14.66
2023-09-04T02:06:37.221Z,14.51
2023-09-04T02:09:05.756Z,14.44
2023-09-04T02:11:33.127Z,14.35
2023-09-04T02:14:00.491Z,14.38
2023-09-04T02:18:56.601Z,14.26
2023-09-04T02:21:23.825Z,14.21
2023-09-04T02:23:51.628Z,14.12
2023-09-04T02:26:18.761Z,14.08
2023-09-04T02:28:45.901Z,14.10
2023-09-04T02:31:13.189Z,14.15
2023-09-04T02:33:40.519Z,14.13
2023-09-04T02:36:07.720Z,14.14
2023-09-04T02:38:34.983Z,14.24
2023-09-04T02:41:02.203Z,14.43
2023-09-04T02:43:29.372Z,14.43
2023-09-04T02:45:58.940Z,14.53
2023-09-04T02:48:26.319Z,14.43
2023-09-04T02:50:58.798Z,14.59
2023-09-04T02:53:29.606Z,14.59
2023-09-04T02:55:56.848Z,14.54
2023-09-04T02:58:24.297Z,14.51
2023-09-04T03:00:51.696Z,14.70
2023-09-04T03:03:25.807Z,14.73
2023-09-04T03:05:53.451Z,14.67
2023-09-04T03:08:20.735Z,14.67
2023-09-04T03:10:48.355Z,14.62
2023-09-04T03:13:15.295Z,14.53
2023-09-04T03:15:42.430Z,14.63
2023-09-04T03:18:10.669Z,14.61
2023-09-04T03:20:37.964Z,14.58
2023-09-04T03:23:04.975Z,14.62
2023-09-04T03:25:33.758Z,14.67
2023-09-04T03:28:00.918Z,14.77
2023-09-04T03:30:27.997Z,14.74
2023-09-04T03:32:55.274Z,14.74
2023-09-04T03:35:22.494Z,14.77
2023-09-04T03:37:49.646Z,14.64
2023-09-04T03:40:25.046Z,14.62
2023-09-04T03:42:53.999Z,14.60
2023-09-04T03:45:21.130Z,14.49
2023-09-04T03:47:49.507Z,14.45
2023-09-04T03:50:17.133Z,14.35
2023-09-04T03:52:44.822Z,14.23
2023-09-04T03:55:13.419Z,14.23
2023-09-04T03:57:45.399Z,14.27
2023-09-04T04:00:18.009Z,14.30
2023-09-04T04:02:47.279Z,14.26
2023-09-04T04:05:15.985Z,14.22
2023-09-04T04:07:46.185Z,14.20
2023-09-04T04:10:13.928Z,14.18
2023-09-04T04:12:41.683Z,14.11
2023-09-04T04:15:09.600Z,13.98
2023-09-04T04:17:37.581Z,13.99
2023-09-04T04:20:10.982Z,13.99
2023-09-04T04:22:38.566Z,13.95
2023-09-04T04:25:06.765Z,13.91
2023-09-04T04:27:34.025Z,13.89
2023-09-04T04:30:03.434Z,13.87
2023-09-04T04:32:30.926Z,13.88
2023-09-04T04:34:58.217Z,13.87
2023-09-04T04:37:25.635Z,13.91
2023-09-04T04:39:53.676Z,13.92
2023-09-04T04:42:21.044Z,13.90
2023-09-04T04:44:48.130Z,13.93
2023-09-04T04:47:15.435Z,13.87
2023-09-04T04:49:43.578Z,13.88
2023-09-04T04:52:10.921Z,13.87
2023-09-04T04:54:38.100Z,13.82
2023-09-04T04:57:05.399Z,13.85
2023-09-04T04:59:32.520Z,13.89
2023-09-04T05:02:01.510Z,13.94
2023-09-04T05:04:28.642Z,13.92
2023-09-04T05:06:55.776Z,13.90
2023-09-04T05:09:23.886Z,13.96
2023-09-04T05:11:51.144Z,13.95
2023-09-04T05:14:18.186Z,14.03
2023-09-04T05:16:45.448Z,13.98
2023-09-04T05:19:13.354Z,14.06
2023-09-04T05:21:55.625Z,14.08
2023-09-04T05:24:23.664Z,14.04
2023-09-04T05:26:50.976Z,14.07
2023-09-04T05:29:18.057Z,14.30
2023-09-04T05:31:44.980Z,14.36
2023-09-04T05:34:12.110Z,14.25
2023-09-04T05:36:39.135Z,14.26
2023-09-04T05:39:06.304Z,14.23
2023-09-04T05:41:33.461Z,14.21
2023-09-04T05:44:00.887Z,14.49
2023-09-04T05:46:28.138Z,14.40
2023-09-04T05:48:55.478Z,14.37
2023-09-04T05:51:22.981Z,14.36
2023-09-04T05:53:51.274Z,14.49
2023-09-04T05:56:20.719Z,14.50
2023-09-04T05:58:50.736Z,14.65
2023-09-04T06:01:19.674Z,14.78
2023-09-04T06:03:47.676Z,14.79
2023-09-04T06:06:15.024Z,14.78
2023-09-04T06:08:42.667Z,14.96
2023-09-04T06:11:09.768Z,14.90
2023-09-04T06:13:36.845Z,15.01
2023-09-04T06:16:05.030Z,15.02
2023-09-04T06:18:32.358Z,15.11
2023-09-04T06:20:59.514Z,15.33
2023-09-04T06:23:26.885Z,15.31
2023-09-04T06:25:54.021Z,15.32
2023-09-04T06:28:21.767Z,15.53
2023-09-04T06:30:51.459Z,15.62
2023-09-04T06:33:18.933Z,15.52
2023-09-04T06:35:46.231Z,15.54
2023-09-04T06:38:14.112Z,15.66
2023-09-04T06:40:41.659Z,15.64
2023-09-04T06:43:08.857Z,15.78
2023-09-04T06:45:37.573Z,15.91
2023-09-04T06:48:08.649Z,15.95
2023-09-04T06:50:36.101Z,16.13
2023-09-04T06:53:04.219Z,16.37
2023-09-04T06:55:31.669Z,16.44
2023-09-04T06:57:59.040Z,16.62
2023-09-04T07:00:26.639Z,16.68
2023-09-04T07:02:54.208Z,17.20
2023-09-04T07:05:22.996Z,17.34
2023-09-04T07:07:50.476Z,17.31
2023-09-04T07:10:18.312Z,17.75
2023-09-04T07:12:46.197Z,17.72
2023-09-04T07:15:14.821Z,17.91
2023-09-04T07:17:42.812Z,18.09
2023-09-04T07:20:12.398Z,18.17
2023-09-04T07:22:40.198Z,18.45
2023-09-04T07:25:08.447Z,18.28
2023-09-04T07:27:36.551Z,18.49
2023-09-04T07:30:04.866Z,18.43
2023-09-04T07:32:32.882Z,18.68
2023-09-04T07:35:00.824Z,18.80
2023-09-04T07:37:29.273Z,19.05
2023-09-04T07:39:57.709Z,19.04
2023-09-04T07:42:27.083Z,19.01
2023-09-04T07:44:54.952Z,19.04
2023-09-04T07:47:22.965Z,19.26
2023-09-04T07:49:52.354Z,19.35
2023-09-04T07:52:20.259Z,19.50
2023-09-04T07:54:50.149Z,19.52
2023-09-04T07:57:18.148Z,19.60
2023-09-04T07:59:45.729Z,19.79
2023-09-04T08:02:14.972Z,19.90
2023-09-04T08:04:43.043Z,20.12
2023-09-04T08:07:10.956Z,20.21
2023-09-04T08:09:40.518Z,20.13
2023-09-04T08:12:08.171Z,20.34
2023-09-04T08:14:37.543Z,20.40
2023-09-04T08:17:05.880Z,20.68
2023-09-04T08:19:34.059Z,20.98
2023-09-04T08:22:02.528Z,20.91
2023-09-04T08:24:32.836Z,21.04
2023-09-04T08:27:02.880Z,20.67
2023-09-04T08:29:31.522Z,20.90
2023-09-04T08:31:59.616Z,20.90
2023-09-04T08:34:29.606Z,21.33
2023-09-04T08:36:58.825Z,21.60
2023-09-04T08:39:28.536Z,21.61
2023-09-04T08:41:59.206Z,21.31
2023-09-04T08:44:36.310Z,21.75
2023-09-04T08:52:45.525Z,22.12
2023-09-04T08:55:32.494Z,22.56
2023-09-04T08:58:13.475Z,22.82
2023-09-04T09:00:41.925Z,22.43
2023-09-04T09:06:03.961Z,22.77
2023-09-04T09:08:38.538Z,22.85
2023-09-04T09:11:13.016Z,23.31
2023-09-04T09:13:42.065Z,22.53
2023-09-04T09:16:10.873Z,22.75
2023-09-04T09:21:37.557Z,22.54
2023-09-04T09:25:03.786Z,22.84
2023-09-04T09:27:37.324Z,22.78
2023-09-04T09:30:11.821Z,23.04
2023-09-04T09:32:41.543Z,23.18
2023-09-04T09:35:17.860Z,23.67
2023-09-04T09:37:47.828Z,23.22
2023-09-04T09:40:17.648Z,23.22
2023-09-04T09:42:47.743Z,23.33
2023-09-04T09:45:18.786Z,23.47
2023-09-04T09:48:16.060Z,23.49
2023-09-04T09:50:48.714Z,23.59
2023-09-04T09:53:21.162Z,23.37
2023-09-04T09:55:52.537Z,23.52
2023-09-04T10:01:11.541Z,23.47
2023-09-04T10:03:41.954Z,23.72
2023-09-04T10:06:16.404Z,23.60
2023-09-04T10:24:03.910Z,23.96
2023-09-04T10:47:58.784Z,24.63
2023-09-04T10:50:59.108Z,25.17
2023-09-04T10:56:30.121Z,24.79
2023-09-04T11:05:15.305Z,24.30
2023-09-04T11:07:45.974Z,24.38
2023-09-04T11:10:31.611Z,24.26
2023-09-04T11:13:00.574Z,24.35
2023-09-04T11:15:30.283Z,24.51
2023-09-04T11:17:59.496Z,24.65
2023-09-04T11:20:29.670Z,24.69
2023-09-04T11:22:59.902Z,24.60
2023-09-04T11:25:30.305Z,24.59
2023-09-04T11:28:02.858Z,24.37
2023-09-04T11:30:31.760Z,24.73
2023-09-04T11:33:02.086Z,24.61
2023-09-04T11:35:30.662Z,24.55
2023-09-04T11:38:03.398Z,24.59
2023-09-04T11:40:33.884Z,24.96
2023-09-04T11:43:05.422Z,24.68
2023-09-04T11:45:34.077Z,24.65
2023-09-04T11:48:03.336Z,24.80
2023-09-04T11:50:33.104Z,25.36
2023-09-04T11:53:01.796Z,25.47
2023-09-04T11:55:30.063Z,24.93
2023-09-04T11:57:59.440Z,24.96
2023-09-04T12:00:27.601Z,24.68
2023-09-04T12:02:56.414Z,24.47
2023-09-04T12:05:24.727Z,24.76
2023-09-04T12:07:53.234Z,25.32
2023-09-04T12:10:21.695Z,25.25
2023-09-04T12:12:50.176Z,24.97
2023-09-04T12:15:34.876Z,24.86
2023-09-04T12:18:05.699Z,25.19
2023-09-04T12:20:45.114Z,24.91
2023-09-04T12:23:13.307Z,24.76
2023-09-04T12:25:43.483Z,24.83
2023-09-04T12:28:16.983Z,24.83
2023-09-04T12:30:49.133Z,24.93
2023-09-04T12:33:19.727Z,24.86
2023-09-04T12:35:56.937Z,25.05
2023-09-04T12:38:25.406Z,25.24
2023-09-04T12:40:55.450Z,25.44
2023-09-04T12:43:23.720Z,25.28
2023-09-04T12:45:53.308Z,24.57
2023-09-04T12:48:23.008Z,24.92
2023-09-04T12:50:52.361Z,25.33
2023-09-04T12:53:27.562Z,25.51
2023-09-04T12:55:56.693Z,25.29
2023-09-04T12:58:27.052Z,25.54
2023-09-04T13:00:57.358Z,25.50
2023-09-04T13:03:27.677Z,25.52
2023-09-04T13:05:58.336Z,25.38
2023-09-04T13:08:31.339Z,25.38
2023-09-04T13:13:50.610Z,25.48
2023-09-04T13:16:27.173Z,25.20
2023-09-04T13:21:53.859Z,25.28
2023-09-04T13:24:26.539Z,25.23
2023-09-04T13:27:05.164Z,25.12
2023-09-04T13:29:42.933Z,25.33
2023-09-04T13:32:33.832Z,25.27
2023-09-04T13:35:18.802Z,25.54
2023-09-04T13:38:02.005Z,25.29
2023-09-04T13:40:35.579Z,25.33
2023-09-04T13:48:48.268Z,24.95
2023-09-04T13:54:05.202Z,25.26
2023-09-04T13:56:45.482Z,25.40
2023-09-04T13:59:23.050Z,25.64
2023-09-04T14:04:41.864Z,25.43
2023-09-04T14:09:54.870Z,25.55
2023-09-04T14:12:48.972Z,25.33
2023-09-04T14:36:04.029Z,25.49
2023-09-04T14:38:37.230Z,25.42
2023-09-04T14:41:24.912Z,25.55
2023-09-04T14:43:55.366Z,25.28
2023-09-04T14:46:27.349Z,25.29
2023-09-04T14:49:02.357Z,25.11
2023-09-04T14:51:33.927Z,25.28
2023-09-04T14:54:03.952Z,25.34
2023-09-04T14:56:39.194Z,25.40
2023-09-04T15:02:00.717Z,24.99
2023-09-04T15:04:38.187Z,25.03
2023-09-04T15:12:42.225Z,25.09
2023-09-04T15:15:18.482Z,24.95
2023-09-04T15:21:16.613Z,24.95
2023-09-04T15:24:13.134Z,24.88
2023-09-04T15:27:01.497Z,24.94
2023-09-04T15:30:04.079Z,24.94
2023-09-04T15:32:44.004Z,24.84
2023-09-04T15:35:24.209Z,24.67
2023-09-04T15:37:57.869Z,24.79
2023-09-04T15:43:10.388Z,24.67
2023-09-04T15:45:43.131Z,24.65
2023-09-04T15:48:22.105Z,24.77
2023-09-04T15:53:38.198Z,24.44
2023-09-04T15:59:02.378Z,24.30
2023-09-04T16:01:37.113Z,24.31
2023-09-04T16:04:23.013Z,24.32
2023-09-04T16:06:56.901Z,24.29
2023-09-04T16:09:45.334Z,24.24
2023-09-04T16:12:17.556Z,24.20
2023-09-04T16:18:03.007Z,24.12
2023-09-04T16:20:34.132Z,23.99
2023-09-04T16:23:04.855Z,24.00
2023-09-04T16:28:43.266Z,23.93
2023-09-04T16:33:58.053Z,23.73
2023-09-04T16:36:32.413Z,23.72
2023-09-04T16:39:10.281Z,23.68
2023-09-04T16:44:27.591Z,23.52
2023-09-04T16:46:59.057Z,23.43
2023-09-04T16:49:41.023Z,23.39
2023-09-04T16:54:57.905Z,23.23
2023-09-04T16:57:36.945Z,23.15
2023-09-04T17:00:18.744Z,23.08
2023-09-04T17:02:54.574Z,22.98
2023-09-04T17:05:25.838Z,22.85
2023-09-04T17:08:05.267Z,22.69
2023-09-04T17:13:44.423Z,22.44
2023-09-04T17:16:31.787Z,22.33
2023-09-04T17:19:15.573Z,22.17
2023-09-04T17:21:48.275Z,22.17
2023-09-04T17:24:28.697Z,22.06
2023-09-04T17:30:00.583Z,21.75
2023-09-04T17:32:33.733Z,21.61
2023-09-04T17:35:13.398Z,21.41
2023-09-04T17:37:46.221Z,21.31
2023-09-04T17:40:17.555Z,20.97
2023-09-04T17:42:48.659Z,20.61
2023-09-04T17:48:10.708Z,20.07
2023-09-04T17:53:28.656Z,19.75
2023-09-04T17:56:02.645Z,19.62
2023-09-04T17:58:35.838Z,19.52
2023-09-04T18:03:54.060Z,19.45
2023-09-04T18:06:24.475Z,19.33
2023-09-04T18:08:56.743Z,19.14
2023-09-04T18:11:28.666Z,18.88
2023-09-04T18:22:40.605Z,18.56
2023-09-04T18:34:29.604Z,18.22
2023-09-04T18:37:21.003Z,18.04
2023-09-04T18:45:49.728Z,17.92
2023-09-04T18:48:19.167Z,17.77
2023-09-04T18:50:53.760Z,17.75
2023-09-04T18:53:22.458Z,17.83
2023-09-04T18:55:55.050Z,17.76
2023-09-04T18:58:26.421Z,17.58
2023-09-04T19:01:04.862Z,17.70
2023-09-04T19:03:32.794Z,17.51
2023-09-04T19:06:01.241Z,17.38
2023-09-04T19:08:29.324Z,17.44
2023-09-04T19:10:57.379Z,17.37
2023-09-04T19:13:25.440Z,17.20
2023-09-04T19:15:53.381Z,17.11
2023-09-04T19:18:21.451Z,17.01
2023-09-04T19:20:51.192Z,17.09
2023-09-04T19:23:19.195Z,16.97
2023-09-04T19:25:47.174Z,16.83
2023-09-04T19:28:15.078Z,16.75
2023-09-04T19:30:42.968Z,16.76
2023-09-04T19:33:11.035Z,16.82
2023-09-04T19:35:38.827Z,16.73
2023-09-04T19:38:06.645Z,16.72
2023-09-04T19:40:34.567Z,16.68
2023-09-04T19:43:02.650Z,16.77
2023-09-04T19:45:30.407Z,16.62
2023-09-04T19:47:58.255Z,16.64
2023-09-04T19:50:26.046Z,16.63
2023-09-04T19:52:54.013Z,16.67
2023-09-04T19:55:21.794Z,16.70
2023-09-04T19:57:49.558Z,16.72
2023-09-04T20:00:17.457Z,16.58
2023-09-04T20:02:45.425Z,16.40
2023-09-04T20:05:13.431Z,16.24
2023-09-04T20:07:42.984Z,16.21
2023-09-04T20:10:11.410Z,16.17
2023-09-04T20:12:39.528Z,16.28
2023-09-04T20:15:08.271Z,16.31
2023-09-04T20:17:36.961Z,16.22
2023-09-04T20:20:04.921Z,16.12
2023-09-04T20:22:33.547Z,16.03
2023-09-04T20:25:02.482Z,16.09
2023-09-04T20:27:30.377Z,16.19
2023-09-04T20:29:58.251Z,16.17
2023-09-04T20:32:27.340Z,16.16
2023-09-04T20:34:55.108Z,16.13
2023-09-04T20:37:23.149Z,16.11
2023-09-04T20:39:51.086Z,15.92
2023-09-04T20:42:19.088Z,15.71
2023-09-04T20:44:47.040Z,15.76
2023-09-04T20:47:15.017Z,15.74
2023-09-04T20:49:43.169Z,15.67
2023-09-04T20:52:12.146Z,15.63
2023-09-04T20:54:42.325Z,15.70
2023-09-04T20:57:10.274Z,15.75
2023-09-04T20:59:38.207Z,15.79
2023-09-04T21:02:07.475Z,15.86
2023-09-04T21:04:35.425Z,15.79
2023-09-04T21:07:08.969Z,15.68
2023-09-04T21:09:37.142Z,15.44
2023-09-04T21:12:23.413Z,15.52
2023-09-04T21:15:09.610Z,15.39
2023-09-04T21:17:56.023Z,15.38
2023-09-04T21:20:42.090Z,15.51
2023-09-04T21:23:28.527Z,15.41
2023-09-04T21:26:14.922Z,15.23
2023-09-04T21:29:01.482Z,15.34
2023-09-04T21:31:47.775Z,15.36
2023-09-04T21:34:33.829Z,15.39
2023-09-04T21:37:20.429Z,15.43
2023-09-04T21:40:06.606Z,15.30
2023-09-04T21:42:52.824Z,15.26
2023-09-04T21:45:39.037Z,15.33
2023-09-04T21:48:25.726Z,15.33
2023-09-04T21:51:11.962Z,15.34
2023-09-04T21:53:58.396Z,15.18
2023-09-04T21:56:44.617Z,15.23
2023-09-04T21:59:30.852Z,15.25
2023-09-04T22:02:17.272Z,14.97
2023-09-04T22:05:03.477Z,14.97
2023-09-04T22:07:49.266Z,14.95
2023-09-04T22:10:36.375Z,14.81
2023-09-04T22:13:22.823Z,14.78
2023-09-04T22:16:09.719Z,14.84
2023-09-04T22:18:56.037Z,14.90
2023-09-04T22:21:42.049Z,14.92
2023-09-04T22:24:28.283Z,14.96
2023-09-04T22:27:17.705Z,14.88
2023-09-04T22:30:03.861Z,14.69
2023-09-04T22:32:50.424Z,14.69
2023-09-04T22:35:36.775Z,14.61
2023-09-04T22:38:30.844Z,14.78
2023-09-04T22:41:22.776Z,14.85
2023-09-04T22:44:09.255Z,14.81
2023-09-04T22:46:55.677Z,14.80
2023-09-04T22:49:42.021Z,14.77
2023-09-04T22:52:28.213Z,14.59
2023-09-04T22:55:14.406Z,14.44
2023-09-04T22:58:00.718Z,14.58
2023-09-04T23:00:47.109Z,14.66
2023-09-04T23:03:33.810Z,14.63
2023-09-04T23:06:20.000Z,14.64
2023-09-04T23:09:06.258Z,14.70
2023-09-04T23:11:52.326Z,14.66
2023-09-04T23:14:38.456Z,14.50
2023-09-04T23:17:24.651Z,14.53
2023-09-04T23:20:10.574Z,14.75
2023-09-04T23:22:38.064Z,14.71
2023-09-04T23:25:05.981Z,14.66
2023-09-04T23:27:33.934Z,14.61
2023-09-04T23:30:08.106Z,14.37
2023-09-04T23:33:03.225Z,14.30
2023-09-04T23:36:06.380Z,14.17
2023-09-04T23:38:54.342Z,14.26
2023-09-04T23:41:40.605Z,14.26
2023-09-04T23:44:31.079Z,14.23
2023-09-04T23:46:59.214Z,14.23
2023-09-04T23:49:28.394Z,14.18
2023-09-04T23:51:56.186Z,14.05
2023-09-04T23:54:27.361Z,14.06
2023-09-04T23:56:57.298Z,14.05
2023-09-04T23:59:26.663Z,14.17
